Terminal Aerodrome Forecast
Issued by NWS St Louis, MO

Home | Current Version | Previous Version | Graphics & Text | Print | Product List | Glossary On
Versions: 1 2 3 4 5 6 7 8 9 10 11 12 13 14 15 16 17 18 19 20 21 22 23 24 25 26 27
432
FTUS43 KLSX 220220 AAA
TAFSTL
TAF AMD
KSTL 220220Z 2202/2306 15007KT P6SM VCTS SCT050CB BKN250
      TEMPO 2202/2203 30014KT 4SM -TSRA SCT025CB BKN050
     FM220800 20009KT P6SM VCTS BKN060CB
      TEMPO 2208/2212 4SM -TSRA OVC030CB
     FM221200 24008KT 4SM -SHRA VCTS OVC050CB
     FM221700 27009KT P6SM VCTS OVC035CB
     FM222300 32007KT P6SM BKN060
     FM230100 35005KT P6SM SCT080=

USA.gov is the U.S. government's official web portal to all federal, state and local government web resources and services.